sensor_id;sensor_type;location;lat;lon;timestamp;P1;durP1;ratioP1;P2;durP2;ratioP2
18364;SDS011;9309;52.126;11.616;2023-04-24T00:02:20;5.13;;;4.70;;
18364;SDS011;9309;52.126;11.616;2023-04-24T00:04:47;5.70;;;4.93;;
18364;SDS011;9309;52.126;11.616;2023-04-24T00:07:13;5.50;;;4.80;;
18364;SDS011;9309;52.126;11.616;2023-04-24T00:09:41;4.87;;;4.33;;
18364;SDS011;9309;52.126;11.616;2023-04-24T00:12:09;4.90;;;4.50;;
18364;SDS011;9309;52.126;11.616;2023-04-24T00:14:36;4.30;;;4.00;;
18364;SDS011;9309;52.126;11.616;2023-04-24T00:17:04;4.37;;;4.17;;
18364;SDS011;9309;52.126;11.616;2023-04-24T00:19:31;4.33;;;4.03;;
18364;SDS011;9309;52.126;11.616;2023-04-24T00:21:57;3.77;;;3.50;;
18364;SDS011;9309;52.126;11.616;2023-04-24T00:24:24;3.70;;;3.50;;
18364;SDS011;9309;52.126;11.616;2023-04-24T00:26:51;3.33;;;3.13;;
18364;SDS011;9309;52.126;11.616;2023-04-24T00:29:19;3.47;;;3.27;;
18364;SDS011;9309;52.126;11.616;2023-04-24T00:31:46;3.43;;;3.23;;
18364;SDS011;9309;52.126;11.616;2023-04-24T00:34:12;2.80;;;2.70;;
18364;SDS011;9309;52.126;11.616;2023-04-24T00:36:39;4.10;;;2.77;;
18364;SDS011;9309;52.126;11.616;2023-04-24T00:39:06;2.50;;;2.40;;
18364;SDS011;9309;52.126;11.616;2023-04-24T00:41:33;2.43;;;2.40;;
18364;SDS011;9309;52.126;11.616;2023-04-24T00:44:01;2.20;;;2.20;;
18364;SDS011;9309;52.126;11.616;2023-04-24T00:46:29;2.63;;;2.47;;
18364;SDS011;9309;52.126;11.616;2023-04-24T00:48:58;2.57;;;2.33;;
18364;SDS011;9309;52.126;11.616;2023-04-24T00:51:25;2.20;;;2.20;;
18364;SDS011;9309;52.126;11.616;2023-04-24T00:53:52;3.80;;;2.00;;
18364;SDS011;9309;52.126;11.616;2023-04-24T00:56:19;2.23;;;2.13;;
18364;SDS011;9309;52.126;11.616;2023-04-24T00:58:46;2.10;;;2.00;;
18364;SDS011;9309;52.126;11.616;2023-04-24T01:01:13;1.80;;;1.70;;
18364;SDS011;9309;52.126;11.616;2023-04-24T01:03:41;1.83;;;1.80;;
18364;SDS011;9309;52.126;11.616;2023-04-24T01:06:08;1.80;;;1.80;;
18364;SDS011;9309;52.126;11.616;2023-04-24T01:08:36;1.70;;;1.60;;
18364;SDS011;9309;52.126;11.616;2023-04-24T01:11:04;1.60;;;1.60;;
18364;SDS011;9309;52.126;11.616;2023-04-24T01:13:31;1.90;;;1.90;;
18364;SDS011;9309;52.126;11.616;2023-04-24T01:15:57;1.93;;;1.83;;
18364;SDS011;9309;52.126;11.616;2023-04-24T01:18:26;1.90;;;1.90;;
18364;SDS011;9309;52.126;11.616;2023-04-24T01:20:56;1.90;;;1.80;;
18364;SDS011;9309;52.126;11.616;2023-04-24T01:23:26;1.93;;;1.83;;
18364;SDS011;9309;52.126;11.616;2023-04-24T01:25:52;1.90;;;1.90;;
18364;SDS011;9309;52.126;11.616;2023-04-24T01:28:19;2.00;;;1.80;;
18364;SDS011;9309;52.126;11.616;2023-04-24T01:30:46;2.20;;;2.10;;
18364;SDS011;9309;52.126;11.616;2023-04-24T01:33:13;2.00;;;1.90;;
18364;SDS011;9309;52.126;11.616;2023-04-24T01:35:40;2.30;;;2.00;;
18364;SDS011;9309;52.126;11.616;2023-04-24T01:38:06;2.17;;;2.17;;
18364;SDS011;9309;52.126;11.616;2023-04-24T01:40:36;2.20;;;2.10;;
18364;SDS011;9309;52.126;11.616;2023-04-24T01:43:03;2.90;;;2.17;;
18364;SDS011;9309;52.126;11.616;2023-04-24T01:45:29;2.23;;;2.23;;
18364;SDS011;9309;52.126;11.616;2023-04-24T01:47:56;2.30;;;2.20;;
18364;SDS011;9309;52.126;11.616;2023-04-24T01:50:23;2.10;;;2.10;;
18364;SDS011;9309;52.126;11.616;2023-04-24T01:52:50;3.63;;;2.20;;
18364;SDS011;9309;52.126;11.616;2023-04-24T01:55:17;3.60;;;2.10;;
18364;SDS011;9309;52.126;11.616;2023-04-24T01:57:45;2.47;;;2.27;;
18364;SDS011;9309;52.126;11.616;2023-04-24T02:00:13;2.30;;;2.20;;
18364;SDS011;9309;52.126;11.616;2023-04-24T02:02:40;2.40;;;2.30;;
18364;SDS011;9309;52.126;11.616;2023-04-24T02:05:08;2.03;;;2.00;;
18364;SDS011;9309;52.126;11.616;2023-04-24T02:07:36;2.33;;;2.17;;
18364;SDS011;9309;52.126;11.616;2023-04-24T02:10:03;2.13;;;2.10;;
18364;SDS011;9309;52.126;11.616;2023-04-24T02:12:30;2.33;;;2.10;;
18364;SDS011;9309;52.126;11.616;2023-04-24T02:14:58;2.10;;;2.07;;
18364;SDS011;9309;52.126;11.616;2023-04-24T02:17:25;1.97;;;1.97;;
18364;SDS011;9309;52.126;11.616;2023-04-24T02:19:52;2.40;;;2.30;;
18364;SDS011;9309;52.126;11.616;2023-04-24T02:22:18;2.00;;;1.90;;
18364;SDS011;9309;52.126;11.616;2023-04-24T02:24:45;2.20;;;2.10;;
18364;SDS011;9309;52.126;11.616;2023-04-24T02:27:14;2.37;;;2.17;;
18364;SDS011;9309;52.126;11.616;2023-04-24T02:29:41;3.40;;;2.30;;
18364;SDS011;9309;52.126;11.616;2023-04-24T02:32:09;5.27;;;2.17;;
18364;SDS011;9309;52.126;11.616;2023-04-24T02:34:37;2.30;;;2.30;;
18364;SDS011;9309;52.126;11.616;2023-04-24T02:37:03;2.27;;;2.20;;
18364;SDS011;9309;52.126;11.616;2023-04-24T02:39:30;2.57;;;2.37;;
18364;SDS011;9309;52.126;11.616;2023-04-24T02:41:56;2.50;;;2.40;;
18364;SDS011;9309;52.126;11.616;2023-04-24T02:44:23;2.13;;;2.03;;
18364;SDS011;9309;52.126;11.616;2023-04-24T02:46:50;2.37;;;2.23;;
18364;SDS011;9309;52.126;11.616;2023-04-24T02:49:18;2.27;;;2.27;;
18364;SDS011;9309;52.126;11.616;2023-04-24T02:51:44;2.40;;;2.30;;
18364;SDS011;9309;52.126;11.616;2023-04-24T02:54:11;2.30;;;2.20;;
18364;SDS011;9309;52.126;11.616;2023-04-24T02:56:38;2.23;;;2.10;;
18364;SDS011;9309;52.126;11.616;2023-04-24T02:59:06;2.57;;;2.30;;
18364;SDS011;9309;52.126;11.616;2023-04-24T03:01:33;2.10;;;2.10;;
18364;SDS011;9309;52.126;11.616;2023-04-24T03:04:00;2.40;;;2.20;;
18364;SDS011;9309;52.126;11.616;2023-04-24T03:06:28;3.23;;;2.40;;
18364;SDS011;9309;52.126;11.616;2023-04-24T03:08:56;6.17;;;2.50;;
18364;SDS011;9309;52.126;11.616;2023-04-24T03:11:24;2.30;;;2.20;;
18364;SDS011;9309;52.126;11.616;2023-04-24T03:13:51;3.50;;;2.17;;
18364;SDS011;9309;52.126;11.616;2023-04-24T03:16:18;2.50;;;2.30;;
18364;SDS011;9309;52.126;11.616;2023-04-24T03:18:45;2.67;;;2.47;;
18364;SDS011;9309;52.126;11.616;2023-04-24T03:21:13;2.33;;;2.23;;
18364;SDS011;9309;52.126;11.616;2023-04-24T03:23:41;2.60;;;2.50;;
18364;SDS011;9309;52.126;11.616;2023-04-24T03:26:09;2.37;;;2.30;;
18364;SDS011;9309;52.126;11.616;2023-04-24T03:28:40;3.10;;;2.90;;
18364;SDS011;9309;52.126;11.616;2023-04-24T03:31:06;8.23;;;2.50;;
18364;SDS011;9309;52.126;11.616;2023-04-24T03:33:35;2.87;;;2.77;;
18364;SDS011;9309;52.126;11.616;2023-04-24T03:36:02;2.60;;;2.40;;
18364;SDS011;9309;52.126;11.616;2023-04-24T03:38:38;2.90;;;2.53;;
18364;SDS011;9309;52.126;11.616;2023-04-24T03:41:20;3.73;;;2.60;;
18364;SDS011;9309;52.126;11.616;2023-04-24T03:43:50;2.70;;;2.50;;
18364;SDS011;9309;52.126;11.616;2023-04-24T03:46:17;3.00;;;2.80;;
18364;SDS011;9309;52.126;11.616;2023-04-24T03:48:50;2.67;;;2.57;;
18364;SDS011;9309;52.126;11.616;2023-04-24T03:51:20;3.13;;;3.03;;
18364;SDS011;9309;52.126;11.616;2023-04-24T03:53:50;5.33;;;3.20;;
18364;SDS011;9309;52.126;11.616;2023-04-24T03:56:20;3.83;;;2.97;;
18364;SDS011;9309;52.126;11.616;2023-04-24T03:58:47;3.10;;;3.00;;
18364;SDS011;9309;52.126;11.616;2023-04-24T04:01:14;3.40;;;2.80;;
18364;SDS011;9309;52.126;11.616;2023-04-24T04:03:53;3.20;;;2.90;;
18364;SDS011;9309;52.126;11.616;2023-04-24T04:06:22;3.10;;;3.00;;
18364;SDS011;9309;52.126;11.616;2023-04-24T04:08:52;2.97;;;2.67;;
18364;SDS011;9309;52.126;11.616;2023-04-24T04:11:18;3.00;;;2.80;;
18364;SDS011;9309;52.126;11.616;2023-04-24T04:13:46;5.77;;;3.07;;
18364;SDS011;9309;52.126;11.616;2023-04-24T04:16:15;4.30;;;3.10;;
18364;SDS011;9309;52.126;11.616;2023-04-24T04:18:43;2.63;;;2.50;;
18364;SDS011;9309;52.126;11.616;2023-04-24T04:21:10;5.03;;;2.60;;
18364;SDS011;9309;52.126;11.616;2023-04-24T04:23:37;3.47;;;2.40;;
18364;SDS011;9309;52.126;11.616;2023-04-24T04:26:14;2.83;;;2.63;;
18364;SDS011;9309;52.126;11.616;2023-04-24T04:28:58;2.80;;;2.60;;
18364;SDS011;9309;52.126;11.616;2023-04-24T04:31:25;2.90;;;2.70;;
18364;SDS011;9309;52.126;11.616;2023-04-24T04:33:53;2.83;;;2.63;;
18364;SDS011;9309;52.126;11.616;2023-04-24T04:36:20;3.07;;;2.77;;
18364;SDS011;9309;52.126;11.616;2023-04-24T04:38:53;2.70;;;2.50;;
18364;SDS011;9309;52.126;11.616;2023-04-24T04:41:41;2.63;;;2.60;;
18364;SDS011;9309;52.126;11.616;2023-04-24T04:44:10;2.80;;;2.63;;
18364;SDS011;9309;52.126;11.616;2023-04-24T04:46:37;3.80;;;2.50;;
18364;SDS011;9309;52.126;11.616;2023-04-24T04:49:11;2.43;;;2.40;;
18364;SDS011;9309;52.126;11.616;2023-04-24T04:51:41;2.67;;;2.57;;
18364;SDS011;9309;52.126;11.616;2023-04-24T04:54:08;2.70;;;2.50;;
18364;SDS011;9309;52.126;11.616;2023-04-24T04:56:36;2.30;;;2.20;;
18364;SDS011;9309;52.126;11.616;2023-04-24T04:59:03;2.27;;;2.17;;
18364;SDS011;9309;52.126;11.616;2023-04-24T05:01:32;2.60;;;2.40;;
18364;SDS011;9309;52.126;11.616;2023-04-24T05:04:00;2.57;;;2.40;;
18364;SDS011;9309;52.126;11.616;2023-04-24T05:06:26;2.50;;;2.30;;
18364;SDS011;9309;52.126;11.616;2023-04-24T05:08:54;5.43;;;2.40;;
18364;SDS011;9309;52.126;11.616;2023-04-24T05:11:32;2.20;;;2.10;;
18364;SDS011;9309;52.126;11.616;2023-04-24T05:14:00;4.60;;;2.00;;
18364;SDS011;9309;52.126;11.616;2023-04-24T05:16:35;2.40;;;2.30;;
18364;SDS011;9309;52.126;11.616;2023-04-24T05:19:04;2.10;;;1.90;;
18364;SDS011;9309;52.126;11.616;2023-04-24T05:21:35;2.60;;;2.00;;
18364;SDS011;9309;52.126;11.616;2023-04-24T05:24:02;2.10;;;1.90;;
18364;SDS011;9309;52.126;11.616;2023-04-24T05:26:48;1.70;;;1.70;;
18364;SDS011;9309;52.126;11.616;2023-04-24T05:29:19;3.00;;;1.80;;
18364;SDS011;9309;52.126;11.616;2023-04-24T05:31:47;3.40;;;1.70;;
18364;SDS011;9309;52.126;11.616;2023-04-24T05:34:15;2.00;;;1.90;;
18364;SDS011;9309;52.126;11.616;2023-04-24T05:36:44;5.20;;;1.80;;
18364;SDS011;9309;52.126;11.616;2023-04-24T05:39:11;2.43;;;1.60;;
18364;SDS011;9309;52.126;11.616;2023-04-24T05:41:38;2.23;;;1.70;;
18364;SDS011;9309;52.126;11.616;2023-04-24T05:44:04;2.90;;;2.70;;
18364;SDS011;9309;52.126;11.616;2023-04-24T05:46:31;4.80;;;3.30;;
18364;SDS011;9309;52.126;11.616;2023-04-24T05:48:59;7.07;;;3.50;;
18364;SDS011;9309;52.126;11.616;2023-04-24T05:51:26;4.00;;;3.60;;
18364;SDS011;9309;52.126;11.616;2023-04-24T05:53:52;3.30;;;3.10;;
18364;SDS011;9309;52.126;11.616;2023-04-24T05:56:19;3.30;;;3.10;;
18364;SDS011;9309;52.126;11.616;2023-04-24T05:58:48;4.03;;;3.73;;
18364;SDS011;9309;52.126;11.616;2023-04-24T06:01:14;5.23;;;4.73;;
18364;SDS011;9309;52.126;11.616;2023-04-24T06:03:44;4.90;;;4.60;;
18364;SDS011;9309;52.126;11.616;2023-04-24T06:06:12;6.73;;;4.73;;
18364;SDS011;9309;52.126;11.616;2023-04-24T06:08:39;4.50;;;3.93;;
18364;SDS011;9309;52.126;11.616;2023-04-24T06:11:07;3.90;;;3.53;;
18364;SDS011;9309;52.126;11.616;2023-04-24T06:13:34;3.60;;;3.17;;
18364;SDS011;9309;52.126;11.616;2023-04-24T06:16:21;2.90;;;2.80;;
18364;SDS011;9309;52.126;11.616;2023-04-24T06:18:54;2.70;;;2.50;;
18364;SDS011;9309;52.126;11.616;2023-04-24T06:21:22;6.47;;;2.60;;
18364;SDS011;9309;52.126;11.616;2023-04-24T06:23:49;8.17;;;2.40;;
18364;SDS011;9309;52.126;11.616;2023-04-24T06:26:16;2.00;;;1.90;;
18364;SDS011;9309;52.126;11.616;2023-04-24T06:28:42;2.10;;;2.10;;
18364;SDS011;9309;52.126;11.616;2023-04-24T06:31:09;2.60;;;2.30;;
18364;SDS011;9309;52.126;11.616;2023-04-24T06:33:36;6.00;;;2.10;;
18364;SDS011;9309;52.126;11.616;2023-04-24T06:36:02;2.10;;;2.00;;
18364;SDS011;9309;52.126;11.616;2023-04-24T06:38:31;3.63;;;2.10;;
18364;SDS011;9309;52.126;11.616;2023-04-24T06:40:58;4.27;;;2.80;;
18364;SDS011;9309;52.126;11.616;2023-04-24T06:43:25;3.60;;;2.63;;
18364;SDS011;9309;52.126;11.616;2023-04-24T06:45:52;3.50;;;3.20;;
18364;SDS011;9309;52.126;11.616;2023-04-24T06:48:18;3.20;;;3.00;;
18364;SDS011;9309;52.126;11.616;2023-04-24T06:50:45;2.67;;;2.43;;
18364;SDS011;9309;52.126;11.616;2023-04-24T06:53:12;2.70;;;2.60;;
18364;SDS011;9309;52.126;11.616;2023-04-24T06:55:41;4.67;;;2.53;;
18364;SDS011;9309;52.126;11.616;2023-04-24T06:58:08;2.30;;;2.20;;
18364;SDS011;9309;52.126;11.616;2023-04-24T07:00:34;2.20;;;2.10;;
18364;SDS011;9309;52.126;11.616;2023-04-24T07:03:01;2.30;;;2.20;;
18364;SDS011;9309;52.126;11.616;2023-04-24T07:05:28;2.30;;;2.20;;
18364;SDS011;9309;52.126;11.616;2023-04-24T07:07:55;3.50;;;1.97;;
18364;SDS011;9309;52.126;11.616;2023-04-24T07:10:23;2.30;;;2.10;;
18364;SDS011;9309;52.126;11.616;2023-04-24T07:12:53;2.10;;;2.00;;
18364;SDS011;9309;52.126;11.616;2023-04-24T07:15:21;2.03;;;1.93;;
18364;SDS011;9309;52.126;11.616;2023-04-24T07:17:48;1.93;;;1.90;;
18364;SDS011;9309;52.126;11.616;2023-04-24T07:20:15;2.17;;;2.00;;
18364;SDS011;9309;52.126;11.616;2023-04-24T07:22:42;2.50;;;1.87;;
18364;SDS011;9309;52.126;11.616;2023-04-24T07:25:09;2.00;;;1.80;;
18364;SDS011;9309;52.126;11.616;2023-04-24T07:27:35;2.00;;;1.83;;
18364;SDS011;9309;52.126;11.616;2023-04-24T07:30:04;1.80;;;1.70;;
18364;SDS011;9309;52.126;11.616;2023-04-24T07:32:32;1.83;;;1.73;;
18364;SDS011;9309;52.126;11.616;2023-04-24T07:34:58;1.73;;;1.73;;
18364;SDS011;9309;52.126;11.616;2023-04-24T07:37:25;1.30;;;1.30;;
18364;SDS011;9309;52.126;11.616;2023-04-24T07:39:52;3.50;;;1.70;;
18364;SDS011;9309;52.126;11.616;2023-04-24T07:42:19;2.13;;;1.60;;
18364;SDS011;9309;52.126;11.616;2023-04-24T07:44:45;1.90;;;1.80;;
18364;SDS011;9309;52.126;11.616;2023-04-24T07:47:14;2.37;;;2.17;;
18364;SDS011;9309;52.126;11.616;2023-04-24T07:49:41;4.50;;;2.13;;
18364;SDS011;9309;52.126;11.616;2023-04-24T07:52:08;1.43;;;1.43;;
18364;SDS011;9309;52.126;11.616;2023-04-24T07:54:35;4.70;;;1.70;;
18364;SDS011;9309;52.126;11.616;2023-04-24T07:57:02;2.93;;;1.70;;
18364;SDS011;9309;52.126;11.616;2023-04-24T07:59:31;1.90;;;1.80;;
18364;SDS011;9309;52.126;11.616;2023-04-24T08:01:57;2.43;;;1.93;;
18364;SDS011;9309;52.126;11.616;2023-04-24T08:04:27;2.53;;;2.30;;
18364;SDS011;9309;52.126;11.616;2023-04-24T08:06:54;1.47;;;1.47;;
18364;SDS011;9309;52.126;11.616;2023-04-24T08:09:20;4.43;;;1.67;;
18364;SDS011;9309;52.126;11.616;2023-04-24T08:11:47;1.43;;;1.33;;
18364;SDS011;9309;52.126;11.616;2023-04-24T08:14:14;3.33;;;1.60;;
18364;SDS011;9309;52.126;11.616;2023-04-24T08:16:40;1.70;;;1.57;;
18364;SDS011;9309;52.126;11.616;2023-04-24T08:19:07;3.20;;;1.40;;
18364;SDS011;9309;52.126;11.616;2023-04-24T08:21:35;2.00;;;1.50;;
18364;SDS011;9309;52.126;11.616;2023-04-24T08:24:02;3.50;;;1.70;;
18364;SDS011;9309;52.126;11.616;2023-04-24T08:26:32;1.40;;;1.40;;
18364;SDS011;9309;52.126;11.616;2023-04-24T08:28:59;3.50;;;1.47;;
18364;SDS011;9309;52.126;11.616;2023-04-24T08:31:26;3.73;;;1.40;;
18364;SDS011;9309;52.126;11.616;2023-04-24T08:33:52;1.40;;;1.40;;
18364;SDS011;9309;52.126;11.616;2023-04-24T08:36:19;4.87;;;1.77;;
18364;SDS011;9309;52.126;11.616;2023-04-24T08:38:47;5.40;;;2.20;;
18364;SDS011;9309;52.126;11.616;2023-04-24T08:41:14;1.30;;;1.30;;
18364;SDS011;9309;52.126;11.616;2023-04-24T08:43:41;2.70;;;1.60;;
18364;SDS011;9309;52.126;11.616;2023-04-24T08:46:08;3.67;;;1.70;;
18364;SDS011;9309;52.126;11.616;2023-04-24T08:48:36;1.40;;;1.40;;
18364;SDS011;9309;52.126;11.616;2023-04-24T08:51:05;1.67;;;1.40;;
18364;SDS011;9309;52.126;11.616;2023-04-24T08:53:34;2.13;;;1.20;;
18364;SDS011;9309;52.126;11.616;2023-04-24T08:56:03;2.27;;;2.07;;
18364;SDS011;9309;52.126;11.616;2023-04-24T08:58:31;1.20;;;1.20;;
18364;SDS011;9309;52.126;11.616;2023-04-24T09:00:58;1.67;;;1.30;;
18364;SDS011;9309;52.126;11.616;2023-04-24T09:03:26;3.03;;;1.30;;
18364;SDS011;9309;52.126;11.616;2023-04-24T09:05:53;2.50;;;1.40;;
18364;SDS011;9309;52.126;11.616;2023-04-24T09:08:22;1.57;;;1.40;;
18364;SDS011;9309;52.126;11.616;2023-04-24T09:10:50;0.90;;;0.90;;
18364;SDS011;9309;52.126;11.616;2023-04-24T09:13:18;3.13;;;1.30;;
18364;SDS011;9309;52.126;11.616;2023-04-24T09:15:46;3.13;;;1.30;;
18364;SDS011;9309;52.126;11.616;2023-04-24T09:18:13;1.83;;;1.10;;
18364;SDS011;9309;52.126;11.616;2023-04-24T09:23:25;3.83;;;1.30;;
18364;SDS011;9309;52.126;11.616;2023-04-24T09:25:54;1.37;;;1.37;;
18364;SDS011;9309;52.126;11.616;2023-04-24T09:28:26;1.20;;;1.20;;
18364;SDS011;9309;52.126;11.616;2023-04-24T09:31:05;1.27;;;1.27;;
18364;SDS011;9309;52.126;11.616;2023-04-24T09:33:33;1.20;;;1.20;;
18364;SDS011;9309;52.126;11.616;2023-04-24T09:36:00;1.40;;;1.40;;
18364;SDS011;9309;52.126;11.616;2023-04-24T09:38:31;1.60;;;1.60;;
18364;SDS011;9309;52.126;11.616;2023-04-24T09:41:00;2.77;;;1.40;;
18364;SDS011;9309;52.126;11.616;2023-04-24T09:43:29;1.40;;;1.40;;
18364;SDS011;9309;52.126;11.616;2023-04-24T09:45:56;2.40;;;1.90;;
18364;SDS011;9309;52.126;11.616;2023-04-24T09:48:31;1.97;;;1.87;;
18364;SDS011;9309;52.126;11.616;2023-04-24T09:50:58;1.77;;;1.73;;
18364;SDS011;9309;52.126;11.616;2023-04-24T09:53:27;2.10;;;2.00;;
18364;SDS011;9309;52.126;11.616;2023-04-24T09:55:55;1.87;;;1.83;;
18364;SDS011;9309;52.126;11.616;2023-04-24T09:58:25;2.20;;;2.10;;
18364;SDS011;9309;52.126;11.616;2023-04-24T10:00:55;2.43;;;2.10;;
18364;SDS011;9309;52.126;11.616;2023-04-24T10:03:23;2.20;;;2.10;;
18364;SDS011;9309;52.126;11.616;2023-04-24T10:05:52;1.97;;;1.97;;
18364;SDS011;9309;52.126;11.616;2023-04-24T10:08:18;2.40;;;2.30;;
18364;SDS011;9309;52.126;11.616;2023-04-24T10:10:46;2.40;;;2.30;;
18364;SDS011;9309;52.126;11.616;2023-04-24T10:13:13;2.30;;;2.20;;
18364;SDS011;9309;52.126;11.616;2023-04-24T10:15:41;2.07;;;1.97;;
18364;SDS011;9309;52.126;11.616;2023-04-24T10:18:09;2.30;;;2.00;;
18364;SDS011;9309;52.126;11.616;2023-04-24T10:20:37;2.10;;;1.90;;
18364;SDS011;9309;52.126;11.616;2023-04-24T10:23:05;2.10;;;2.10;;
18364;SDS011;9309;52.126;11.616;2023-04-24T10:25:33;3.27;;;1.70;;
18364;SDS011;9309;52.126;11.616;2023-04-24T10:28:01;2.00;;;1.90;;
18364;SDS011;9309;52.126;11.616;2023-04-24T10:30:29;2.43;;;2.27;;
18364;SDS011;9309;52.126;11.616;2023-04-24T10:32:59;1.87;;;1.87;;
18364;SDS011;9309;52.126;11.616;2023-04-24T10:35:29;1.87;;;1.77;;
18364;SDS011;9309;52.126;11.616;2023-04-24T10:37:59;3.00;;;2.50;;
18364;SDS011;9309;52.126;11.616;2023-04-24T10:40:31;2.73;;;2.10;;
18364;SDS011;9309;52.126;11.616;2023-04-24T10:43:01;2.30;;;2.20;;
18364;SDS011;9309;52.126;11.616;2023-04-24T10:45:31;5.03;;;2.40;;
18364;SDS011;9309;52.126;11.616;2023-04-24T10:47:58;2.47;;;2.30;;
18364;SDS011;9309;52.126;11.616;2023-04-24T10:50:26;14.57;;;2.43;;
18364;SDS011;9309;52.126;11.616;2023-04-24T10:53:04;1.98;;;1.88;;
18364;SDS011;9309;52.126;11.616;2023-04-24T10:55:40;3.10;;;1.77;;
18364;SDS011;9309;52.126;11.616;2023-04-24T10:58:08;1.88;;;1.77;;
18364;SDS011;9309;52.126;11.616;2023-04-24T11:00:36;1.87;;;1.40;;
18364;SDS011;9309;52.126;11.616;2023-04-24T11:03:04;1.30;;;1.30;;
18364;SDS011;9309;52.126;11.616;2023-04-24T11:05:51;1.63;;;1.60;;
18364;SDS011;9309;52.126;11.616;2023-04-24T11:08:21;1.47;;;1.47;;
18364;SDS011;9309;52.126;11.616;2023-04-24T11:10:57;1.83;;;1.47;;
18364;SDS011;9309;52.126;11.616;2023-04-24T11:13:27;3.67;;;1.80;;
18364;SDS011;9309;52.126;11.616;2023-04-24T11:16:15;1.47;;;1.47;;
18364;SDS011;9309;52.126;11.616;2023-04-24T11:18:50;1.30;;;1.30;;
18364;SDS011;9309;52.126;11.616;2023-04-24T11:21:21;1.57;;;1.57;;
18364;SDS011;9309;52.126;11.616;2023-04-24T11:23:48;1.73;;;1.73;;
18364;SDS011;9309;52.126;11.616;2023-04-24T11:26:17;2.00;;;1.70;;
18364;SDS011;9309;52.126;11.616;2023-04-24T11:28:48;1.60;;;1.50;;
18364;SDS011;9309;52.126;11.616;2023-04-24T11:31:34;1.27;;;1.27;;
18364;SDS011;9309;52.126;11.616;2023-04-24T11:34:06;1.50;;;1.50;;
18364;SDS011;9309;52.126;11.616;2023-04-24T11:36:35;1.42;;;1.40;;
18364;SDS011;9309;52.126;11.616;2023-04-24T11:39:02;2.78;;;1.70;;
18364;SDS011;9309;52.126;11.616;2023-04-24T11:41:29;1.50;;;1.50;;
18364;SDS011;9309;52.126;11.616;2023-04-24T11:43:56;3.93;;;1.77;;
18364;SDS011;9309;52.126;11.616;2023-04-24T11:46:26;1.80;;;1.70;;
18364;SDS011;9309;52.126;11.616;2023-04-24T11:48:54;1.80;;;1.70;;
18364;SDS011;9309;52.126;11.616;2023-04-24T11:51:22;1.90;;;1.90;;
18364;SDS011;9309;52.126;11.616;2023-04-24T11:53:50;2.00;;;1.90;;
18364;SDS011;9309;52.126;11.616;2023-04-24T11:56:17;1.87;;;1.87;;
18364;SDS011;9309;52.126;11.616;2023-04-24T11:58:45;1.73;;;1.73;;
18364;SDS011;9309;52.126;11.616;2023-04-24T12:01:12;1.70;;;1.70;;
18364;SDS011;9309;52.126;11.616;2023-04-24T12:03:40;2.37;;;2.27;;
18364;SDS011;9309;52.126;11.616;2023-04-24T12:06:09;2.13;;;2.13;;
18364;SDS011;9309;52.126;11.616;2023-04-24T12:08:37;2.30;;;2.20;;
18364;SDS011;9309;52.126;11.616;2023-04-24T12:11:06;2.63;;;2.53;;
18364;SDS011;9309;52.126;11.616;2023-04-24T12:13:33;2.40;;;2.30;;
18364;SDS011;9309;52.126;11.616;2023-04-24T12:16:03;3.07;;;2.10;;
18364;SDS011;9309;52.126;11.616;2023-04-24T12:18:30;2.40;;;2.30;;
18364;SDS011;9309;52.126;11.616;2023-04-24T12:23:45;2.13;;;2.03;;
18364;SDS011;9309;52.126;11.616;2023-04-24T12:26:17;1.93;;;1.70;;
18364;SDS011;9309;52.126;11.616;2023-04-24T12:28:45;2.27;;;2.17;;
18364;SDS011;9309;52.126;11.616;2023-04-24T12:31:13;6.67;;;3.00;;
18364;SDS011;9309;52.126;11.616;2023-04-24T12:33:40;3.07;;;1.60;;
18364;SDS011;9309;52.126;11.616;2023-04-24T12:36:09;3.28;;;1.55;;
18364;SDS011;9309;52.126;11.616;2023-04-24T12:38:37;2.85;;;1.52;;
18364;SDS011;9309;52.126;11.616;2023-04-24T12:41:06;1.77;;;1.67;;
18364;SDS011;9309;52.126;11.616;2023-04-24T12:43:35;1.43;;;1.43;;
18364;SDS011;9309;52.126;11.616;2023-04-24T12:46:02;1.80;;;1.60;;
18364;SDS011;9309;52.126;11.616;2023-04-24T12:48:29;2.83;;;1.43;;
18364;SDS011;9309;52.126;11.616;2023-04-24T12:50:57;1.40;;;1.40;;
18364;SDS011;9309;52.126;11.616;2023-04-24T12:53:26;2.37;;;1.67;;
18364;SDS011;9309;52.126;11.616;2023-04-24T12:55:56;1.50;;;1.40;;
18364;SDS011;9309;52.126;11.616;2023-04-24T12:58:22;2.63;;;1.60;;
18364;SDS011;9309;52.126;11.616;2023-04-24T13:00:51;4.00;;;1.45;;
18364;SDS011;9309;52.126;11.616;2023-04-24T13:03:17;1.40;;;1.40;;
18364;SDS011;9309;52.126;11.616;2023-04-24T13:05:45;2.47;;;1.60;;
18364;SDS011;9309;52.126;11.616;2023-04-24T13:08:11;1.30;;;1.30;;
18364;SDS011;9309;52.126;11.616;2023-04-24T13:10:38;1.50;;;1.50;;
18364;SDS011;9309;52.126;11.616;2023-04-24T13:13:06;1.50;;;1.38;;
18364;SDS011;9309;52.126;11.616;2023-04-24T13:15:33;1.60;;;1.50;;
18364;SDS011;9309;52.126;11.616;2023-04-24T13:18:01;2.83;;;1.80;;
18364;SDS011;9309;52.126;11.616;2023-04-24T13:20:28;1.58;;;1.58;;
18364;SDS011;9309;52.126;11.616;2023-04-24T13:22:55;1.90;;;1.80;;
18364;SDS011;9309;52.126;11.616;2023-04-24T13:25:22;1.33;;;1.33;;
18364;SDS011;9309;52.126;11.616;2023-04-24T13:27:50;1.63;;;1.63;;
18364;SDS011;9309;52.126;11.616;2023-04-24T13:30:16;1.43;;;1.43;;
18364;SDS011;9309;52.126;11.616;2023-04-24T13:32:43;1.80;;;1.70;;
18364;SDS011;9309;52.126;11.616;2023-04-24T13:35:12;1.70;;;1.60;;
18364;SDS011;9309;52.126;11.616;2023-04-24T13:37:38;1.30;;;1.30;;
18364;SDS011;9309;52.126;11.616;2023-04-24T13:40:06;1.50;;;1.50;;
18364;SDS011;9309;52.126;11.616;2023-04-24T13:42:33;6.90;;;1.90;;
18364;SDS011;9309;52.126;11.616;2023-04-24T13:45:00;1.50;;;1.50;;
18364;SDS011;9309;52.126;11.616;2023-04-24T13:47:28;3.50;;;1.50;;
18364;SDS011;9309;52.126;11.616;2023-04-24T13:49:55;1.77;;;1.67;;
18364;SDS011;9309;52.126;11.616;2023-04-24T13:52:23;1.43;;;1.43;;
18364;SDS011;9309;52.126;11.616;2023-04-24T13:54:50;1.60;;;1.60;;
18364;SDS011;9309;52.126;11.616;2023-04-24T13:57:17;1.63;;;1.53;;
18364;SDS011;9309;52.126;11.616;2023-04-24T13:59:43;5.40;;;2.07;;
18364;SDS011;9309;52.126;11.616;2023-04-24T14:02:11;11.53;;;2.10;;
18364;SDS011;9309;52.126;11.616;2023-04-24T14:04:38;3.60;;;1.70;;
18364;SDS011;9309;52.126;11.616;2023-04-24T14:07:05;3.33;;;2.07;;
18364;SDS011;9309;52.126;11.616;2023-04-24T14:09:34;2.03;;;1.93;;
18364;SDS011;9309;52.126;11.616;2023-04-24T14:12:01;4.43;;;1.80;;
18364;SDS011;9309;52.126;11.616;2023-04-24T14:14:28;1.60;;;1.60;;
18364;SDS011;9309;52.126;11.616;2023-04-24T14:16:55;2.50;;;1.50;;
18364;SDS011;9309;52.126;11.616;2023-04-24T14:19:23;1.50;;;1.50;;
18364;SDS011;9309;52.126;11.616;2023-04-24T14:21:50;1.10;;;1.10;;
18364;SDS011;9309;52.126;11.616;2023-04-24T14:24:16;1.80;;;1.70;;
18364;SDS011;9309;52.126;11.616;2023-04-24T14:26:44;1.20;;;1.20;;
18364;SDS011;9309;52.126;11.616;2023-04-24T14:29:11;5.23;;;5.03;;
18364;SDS011;9309;52.126;11.616;2023-04-24T14:31:38;2.27;;;1.30;;
18364;SDS011;9309;52.126;11.616;2023-04-24T14:34:05;1.60;;;1.50;;
18364;SDS011;9309;52.126;11.616;2023-04-24T14:36:32;1.60;;;1.50;;
18364;SDS011;9309;52.126;11.616;2023-04-24T14:38:59;1.10;;;1.10;;
18364;SDS011;9309;52.126;11.616;2023-04-24T14:41:28;1.00;;;1.00;;
18364;SDS011;9309;52.126;11.616;2023-04-24T14:43:56;10.27;;;2.10;;
18364;SDS011;9309;52.126;11.616;2023-04-24T14:46:23;1.20;;;1.20;;
18364;SDS011;9309;52.126;11.616;2023-04-24T14:48:50;1.40;;;1.30;;
18364;SDS011;9309;52.126;11.616;2023-04-24T14:51:17;1.63;;;1.53;;
18364;SDS011;9309;52.126;11.616;2023-04-24T14:53:43;1.20;;;1.20;;
18364;SDS011;9309;52.126;11.616;2023-04-24T14:56:11;1.50;;;1.50;;
18364;SDS011;9309;52.126;11.616;2023-04-24T14:58:38;1.40;;;1.40;;
18364;SDS011;9309;52.126;11.616;2023-04-24T15:01:06;4.23;;;1.77;;